Time;durP1;ratioP1;P1;durP2;ratioP2;P2;SDS_P1;SDS_P2;PMS_P1;PMS_P2;Temp;Humidity;BMP_temperature;BMP_pressure;BME280_temperature;BME280_humidity;BME280_pressure;Samples;Min_cycle;Max_cycle;Signal;HPM_P1;HPM_P2
2022/12/28 00:00:53;;;;;;;3.65;2.13;;;6.20;99.90;;;;;;5122755;27;20393;-68
2022/12/28 00:03:18;;;;;;;4.00;1.17;;;6.20;99.90;;;;;;5108449;28;20133;-69
2022/12/28 00:05:44;;;;;;;4.60;1.20;;;6.10;99.90;;;;;;5096668;28;20059;-68
2022/12/28 00:08:10;;;;;;;1.42;0.80;;;6.10;99.90;;;;;;5096614;28;20039;-68
2022/12/28 00:10:35;;;;;;;2.03;0.98;;;6.10;99.90;;;;;;5100551;28;20027;-68
2022/12/28 00:13:01;;;;;;;2.80;1.38;;;6.10;99.90;;;;;;5100719;27;20564;-68
2022/12/28 00:15:26;;;;;;;4.00;1.77;;;6.10;99.90;;;;;;5103335;27;20043;-68
2022/12/28 00:17:52;;;;;;;3.13;1.60;;;6.10;99.90;;;;;;5128302;27;20042;-68
2022/12/28 00:20:17;;;;;;;1.20;0.77;;;6.10;99.90;;;;;;5120904;27;20513;-68
2022/12/28 00:22:43;;;;;;;2.88;1.05;;;6.10;99.90;;;;;;5100173;27;20496;-68
2022/12/28 00:25:09;;;;;;;2.67;1.00;;;6.10;99.90;;;;;;5079269;28;20044;-68
2022/12/28 00:27:34;;;;;;;1.70;0.93;;;6.10;99.90;;;;;;5101451;27;20040;-67
2022/12/28 00:30:00;;;;;;;2.10;1.00;;;6.10;99.90;;;;;;5097673;27;20039;-68
2022/12/28 00:32:26;;;;;;;1.98;1.10;;;6.20;99.90;;;;;;5083882;28;20035;-68
2022/12/28 00:34:51;;;;;;;1.45;0.90;;;6.10;99.90;;;;;;5093971;27;20047;-68
2022/12/28 00:37:17;;;;;;;2.28;1.45;;;6.10;99.90;;;;;;5101650;28;20044;-68
2022/12/28 00:39:42;;;;;;;5.03;1.30;;;6.10;99.90;;;;;;5124985;27;20085;-68
2022/12/28 00:42:09;;;;;;;2.45;1.52;;;6.10;99.90;;;;;;5113472;27;20036;-68
2022/12/28 00:44:34;;;;;;;2.90;1.40;;;6.10;99.90;;;;;;5097913;27;20389;-68
2022/12/28 00:47:00;;;;;;;7.43;1.30;;;6.10;99.90;;;;;;5129553;27;20031;-68
2022/12/28 00:49:25;;;;;;;3.53;1.42;;;6.10;99.90;;;;;;5122443;27;20042;-68
2022/12/28 00:51:51;;;;;;;1.55;1.35;;;6.10;99.90;;;;;;5128162;27;20110;-68
2022/12/28 00:54:16;;;;;;;2.25;1.15;;;6.10;99.90;;;;;;5079550;27;20027;-68
2022/12/28 00:56:42;;;;;;;4.43;1.45;;;6.10;99.90;;;;;;5093967;27;20044;-68
2022/12/28 00:59:08;;;;;;;5.53;1.10;;;6.10;99.90;;;;;;5094807;27;20051;-68
2022/12/28 01:01:33;;;;;;;3.08;0.90;;;6.10;99.90;;;;;;5108466;27;21838;-68
2022/12/28 01:03:59;;;;;;;2.05;1.40;;;6.10;99.90;;;;;;5098564;27;20126;-68
2022/12/28 01:06:26;;;;;;;2.70;1.35;;;6.20;99.90;;;;;;5098452;27;20687;-68
2022/12/28 01:08:52;;;;;;;1.77;0.95;;;6.10;99.90;;;;;;5078815;27;20047;-69
2022/12/28 01:11:24;;;;;;;1.83;1.08;;;6.10;99.90;;;;;;5096128;27;20051;-68
2022/12/28 01:13:51;;;;;;;4.75;1.13;;;6.20;99.90;;;;;;5100456;27;20035;-68
2022/12/28 01:16:23;;;;;;;3.30;1.60;;;6.20;99.90;;;;;;5128048;27;20123;-68
2022/12/28 01:18:52;;;;;;;4.28;1.52;;;6.20;99.90;;;;;;5103475;27;22281;-68
2022/12/28 01:21:20;;;;;;;2.33;1.70;;;6.20;99.90;;;;;;5098219;27;20039;-68
2022/12/28 01:23:47;;;;;;;1.92;1.05;;;6.20;99.90;;;;;;5094236;28;20093;-68
2022/12/28 01:26:13;;;;;;;3.33;1.25;;;6.20;99.90;;;;;;5100643;27;20032;-68
2022/12/28 01:28:39;;;;;;;1.60;1.05;;;6.20;99.90;;;;;;5095175;27;20123;-68
2022/12/28 01:31:11;;;;;;;3.70;1.42;;;6.20;99.90;;;;;;5097426;27;20204;-68
2022/12/28 01:33:37;;;;;;;6.07;1.75;;;6.20;99.90;;;;;;5099766;28;20119;-68
2022/12/28 01:36:23;;;;;;;5.80;1.20;;;6.20;99.90;;;;;;5093616;27;20141;-68
2022/12/28 01:38:53;;;;;;;;;;;6.20;99.90;;;;;;5096197;27;20032;-68
2022/12/28 01:41:19;;;;;;;2.55;1.40;;;6.20;99.90;;;;;;5126178;27;19943;-68
2022/12/28 01:44:06;;;;;;;1.52;1.00;;;6.20;99.90;;;;;;5093883;27;20505;-68
2022/12/28 01:46:36;;;;;;;3.42;1.67;;;6.20;99.90;;;;;;5128558;27;20035;-68
2022/12/28 01:49:06;;;;;;;4.53;1.50;;;6.20;99.90;;;;;;5120969;27;20674;-68
2022/12/28 01:51:52;;;;;;;2.25;1.42;;;6.20;99.90;;;;;;5094341;27;20439;-68
2022/12/28 01:54:20;;;;;;;6.13;2.05;;;6.20;99.90;;;;;;5101449;27;20043;-68
2022/12/28 01:56:47;;;;;;;3.42;1.67;;;6.30;99.90;;;;;;5096434;28;20096;-68
2022/12/28 01:59:13;;;;;;;6.75;1.58;;;6.20;99.90;;;;;;5092848;27;20042;-68
2022/12/28 02:01:39;;;;;;;3.08;1.80;;;6.20;99.90;;;;;;5094454;27;20036;-69
2022/12/28 02:04:05;;;;;;;5.35;1.70;;;6.30;99.90;;;;;;5125377;27;20417;-68
2022/12/28 02:06:31;;;;;;;2.50;1.35;;;6.30;99.90;;;;;;5125262;27;20047;-68
2022/12/28 02:09:18;;;;;;;3.58;1.55;;;6.30;99.90;;;;;;5097375;27;20048;-68
2022/12/28 02:11:44;;;;;;;2.67;1.50;;;6.30;99.90;;;;;;5093141;28;20167;-68
2022/12/28 02:14:12;;;;;;;2.03;1.33;;;6.30;99.90;;;;;;5093629;27;20044;-68
2022/12/28 02:16:37;;;;;;;1.90;1.10;;;6.30;99.90;;;;;;5095035;27;20616;-68
2022/12/28 02:19:04;;;;;;;3.85;1.85;;;6.30;99.90;;;;;;5096035;27;20035;-68
2022/12/28 02:21:59;;;;;;;6.78;2.17;;;6.30;99.90;;;;;;5075420;28;20039;-68
2022/12/28 02:24:31;;;;;;;3.80;1.75;;;6.30;99.90;;;;;;5125796;27;20059;-68
2022/12/28 02:27:08;;;;;;;3.10;1.38;;;6.30;99.90;;;;;;5093550;28;20450;-68
2022/12/28 02:29:55;;;;;;;3.92;1.45;;;6.30;99.90;;;;;;5120871;27;20282;-68
2022/12/28 02:32:47;;;;;;;2.55;1.40;;;6.30;99.90;;;;;;5076005;28;20039;-67
2022/12/28 02:35:37;;;;;;;1.90;1.15;;;6.30;99.90;;;;;;5095584;28;20046;-68
2022/12/28 02:38:15;;;;;;;2.72;1.50;;;6.40;99.90;;;;;;5090813;28;20039;-68
2022/12/28 02:40:45;;;;;;;1.40;1.13;;;6.30;99.90;;;;;;5077023;28;20078;-68
2022/12/28 02:43:12;;;;;;;2.38;1.50;;;6.30;99.90;;;;;;5077081;28;20044;-68
2022/12/28 02:52:00;;;;;;;2.58;1.20;;;6.40;99.90;;;;;;5120823;27;20039;-68
2022/12/28 02:58:05;;;;;;;2.53;1.30;;;6.40;99.90;;;;;;5120078;27;20651;-67
2022/12/28 03:00:57;;;;;;;2.17;1.30;;;6.30;99.90;;;;;;5096888;28;20670;-68
2022/12/28 03:03:49;;;;;;;3.17;1.30;;;6.40;99.90;;;;;;5098315;28;20043;-68
2022/12/28 03:10:10;;;;;;;3.60;1.73;;;6.40;99.90;;;;;;5090527;28;20040;-68
2022/12/28 03:12:49;;;;;;;2.28;1.13;;;6.40;99.90;;;;;;5095760;28;20035;-67
2022/12/28 03:15:31;;;;;;;5.65;1.52;;;6.40;99.90;;;;;;5099906;28;20120;-67
2022/12/28 03:31:56;;;;;;;1.83;1.25;;;6.50;99.90;;;;;;5098646;28;20047;-67
2022/12/28 03:34:22;;;;;;;2.05;1.05;;;6.50;99.90;;;;;;5120345;27;20039;-67
2022/12/28 03:37:16;;;;;;;3.38;1.45;;;6.50;99.90;;;;;;5093890;28;20401;-67
2022/12/28 03:39:57;;;;;;;3.90;2.05;;;6.50;99.90;;;;;;5110383;27;20036;-67
2022/12/28 03:46:01;;;;;;;4.40;1.73;;;6.60;99.90;;;;;;5121131;27;20048;-67
2022/12/28 03:48:30;;;;;;;5.50;1.73;;;6.60;99.90;;;;;;5129532;27;20800;-67
2022/12/28 03:50:56;;;;;;;1.70;0.98;;;6.70;99.90;;;;;;5094049;27;20479;-67
2022/12/28 03:53:29;;;;;;;2.75;1.73;;;6.70;99.90;;;;;;5100732;27;20048;-67
2022/12/28 03:56:12;;;;;;;2.75;1.80;;;6.70;99.90;;;;;;5102604;28;20032;-67
2022/12/28 03:58:38;;;;;;;1.95;1.15;;;6.60;99.90;;;;;;5095673;27;20047;-67
2022/12/28 04:01:04;;;;;;;2.88;1.48;;;6.70;99.90;;;;;;5097202;27;20027;-67
2022/12/28 04:03:30;;;;;;;2.58;1.30;;;6.70;99.90;;;;;;5100724;27;20758;-67
2022/12/28 04:05:55;;;;;;;2.63;1.30;;;6.70;99.90;;;;;;5119818;27;20048;-67
2022/12/28 04:08:21;;;;;;;3.20;1.60;;;6.80;99.90;;;;;;5084623;27;20123;-68
2022/12/28 04:10:46;;;;;;;3.45;1.60;;;6.80;99.90;;;;;;5130939;27;20035;-67
2022/12/28 04:13:12;;;;;;;1.50;0.93;;;6.80;99.90;;;;;;5131084;27;20039;-68
2022/12/28 04:15:38;;;;;;;3.35;1.30;;;6.80;99.90;;;;;;5097121;27;20049;-68
2022/12/28 04:18:03;;;;;;;2.17;1.10;;;6.80;99.90;;;;;;5093356;27;20032;-67
2022/12/28 04:20:29;;;;;;;2.53;1.10;;;6.90;99.90;;;;;;5101128;28;20028;-67
2022/12/28 04:22:55;;;;;;;1.95;0.98;;;6.90;99.90;;;;;;5120584;27;20389;-67
2022/12/28 04:25:20;;;;;;;1.75;1.00;;;6.90;99.90;;;;;;5132695;27;20049;-67
2022/12/28 04:27:46;;;;;;;2.08;1.23;;;6.90;99.90;;;;;;5120620;27;20035;-67
2022/12/28 04:30:11;;;;;;;1.58;0.80;;;6.90;99.90;;;;;;5130445;27;20709;-68
2022/12/28 04:32:37;;;;;;;2.03;1.27;;;6.90;99.90;;;;;;5097604;27;20024;-68
2022/12/28 04:35:03;;;;;;;1.70;1.05;;;6.90;99.90;;;;;;5112913;27;20592;-68
2022/12/28 04:37:28;;;;;;;3.00;1.10;;;6.90;99.90;;;;;;5099938;27;20051;-68
2022/12/28 04:39:54;;;;;;;2.53;1.00;;;6.90;99.90;;;;;;5098325;27;20122;-68
2022/12/28 04:42:20;;;;;;;1.88;1.10;;;7.00;99.90;;;;;;5098671;28;20969;-68
2022/12/28 04:44:45;;;;;;;2.35;1.08;;;7.00;99.90;;;;;;5095249;27;20044;-67
2022/12/28 04:47:12;;;;;;;1.90;1.10;;;7.00;99.90;;;;;;5105801;27;20127;-67
2022/12/28 04:49:37;;;;;;;2.83;0.80;;;7.00;99.90;;;;;;5101818;27;20047;-68
2022/12/28 04:52:03;;;;;;;1.65;1.02;;;7.00;99.90;;;;;;5099256;27;20035;-68
2022/12/28 04:54:29;;;;;;;2.13;1.45;;;7.00;99.90;;;;;;5121983;27;20052;-68
2022/12/28 04:56:54;;;;;;;1.92;1.15;;;7.00;99.90;;;;;;5099601;27;20054;-68
2022/12/28 04:59:20;;;;;;;2.67;1.45;;;7.00;99.90;;;;;;5095525;27;20043;-68
2022/12/28 05:01:46;;;;;;;4.22;1.42;;;7.10;99.90;;;;;;5129214;27;20036;-67
2022/12/28 05:04:11;;;;;;;1.90;1.30;;;7.00;99.90;;;;;;5124325;27;20070;-67
2022/12/28 05:06:37;;;;;;;1.70;0.88;;;7.00;99.90;;;;;;5098868;27;20039;-68
2022/12/28 05:09:02;;;;;;;2.08;1.02;;;7.10;99.90;;;;;;5100632;27;20059;-67
2022/12/28 05:11:28;;;;;;;1.88;1.13;;;7.10;99.90;;;;;;5097343;27;20468;-67
2022/12/28 05:13:55;;;;;;;2.72;1.90;;;7.10;99.90;;;;;;5099248;27;20097;-67
2022/12/28 05:16:23;;;;;;;1.88;1.05;;;7.10;99.90;;;;;;5097374;27;20496;-67
2022/12/28 05:18:49;;;;;;;2.08;1.08;;;7.10;99.90;;;;;;5102611;27;20540;-68
2022/12/28 05:21:20;;;;;;;1.52;1.02;;;7.20;99.90;;;;;;5120642;27;20067;-68
2022/12/28 05:23:47;;;;;;;1.30;0.90;;;7.20;99.90;;;;;;5100701;27;20101;-68
2022/12/28 05:26:17;;;;;;;2.10;1.30;;;7.20;99.90;;;;;;5096047;27;20130;-68
2022/12/28 05:28:43;;;;;;;2.13;1.08;;;7.20;99.90;;;;;;5099714;27;20032;-67
2022/12/28 05:31:12;;;;;;;2.92;1.08;;;7.30;99.90;;;;;;5095290;27;20032;-67
2022/12/28 05:33:38;;;;;;;2.50;1.10;;;7.30;99.90;;;;;;5100116;27;20490;-68
2022/12/28 05:36:09;;;;;;;2.13;1.20;;;7.30;99.90;;;;;;5093507;27;20577;-68
2022/12/28 05:38:35;;;;;;;2.00;1.40;;;7.30;99.90;;;;;;5100659;27;20040;-67
2022/12/28 05:41:12;;;;;;;2.58;0.90;;;7.30;99.90;;;;;;5098754;27;20032;-68
2022/12/28 05:43:39;;;;;;;3.50;1.67;;;7.30;99.90;;;;;;5098930;27;20419;-67
2022/12/28 05:46:07;;;;;;;3.17;1.35;;;7.30;99.90;;;;;;5094883;27;20397;-68
2022/12/28 05:48:34;;;;;;;2.10;1.00;;;7.40;99.90;;;;;;5100309;27;20048;-68
2022/12/28 05:51:11;;;;;;;3.00;1.30;;;7.40;99.90;;;;;;5098260;27;20130;-68
2022/12/28 05:53:37;;;;;;;2.40;1.20;;;7.40;99.90;;;;;;5109567;27;20036;-68
2022/12/28 05:56:04;;;;;;;2.28;1.38;;;7.40;99.90;;;;;;5096770;27;20080;-68
2022/12/28 05:58:30;;;;;;;2.25;1.27;;;7.40;99.90;;;;;;5123796;27;20032;-68
2022/12/28 06:01:15;;;;;;;1.90;1.02;;;7.40;99.90;;;;;;5094842;28;20557;-68
2022/12/28 06:03:42;;;;;;;2.15;1.25;;;7.50;99.90;;;;;;5122558;27;20054;-68
2022/12/28 06:06:13;;;;;;;2.13;1.27;;;7.50;99.90;;;;;;5101478;27;20382;-67
2022/12/28 06:08:41;;;;;;;2.63;1.38;;;7.50;99.90;;;;;;5099557;27;20032;-67
2022/12/28 06:11:10;;;;;;;3.38;1.50;;;7.50;99.90;;;;;;5098164;27;20119;-68
2022/12/28 06:13:36;;;;;;;3.00;1.38;;;7.60;99.90;;;;;;5096790;27;20031;-68
2022/12/28 06:16:06;;;;;;;3.13;1.88;;;7.60;99.90;;;;;;5094967;27;20633;-67
2022/12/28 06:18:32;;;;;;;3.30;1.75;;;7.60;99.90;;;;;;5094903;27;20176;-68
2022/12/28 06:21:08;;;;;;;2.60;1.35;;;7.70;99.90;;;;;;5102933;28;20390;-67
2022/12/28 06:23:34;;;;;;;;;;;7.60;99.90;;;;;;5094381;28;20042;-67
2022/12/28 06:26:01;;;;;;;3.30;2.25;;;7.70;99.90;;;;;;5101969;27;19920;-67
2022/12/28 06:28:27;;;;;;;3.92;2.05;;;7.70;99.90;;;;;;5112127;27;20070;-68
2022/12/28 06:31:20;;;;;;;2.63;1.50;;;7.70;99.90;;;;;;5100719;28;20069;-67
2022/12/28 06:33:47;;;;;;;2.83;1.75;;;7.70;99.90;;;;;;5089456;28;20445;-67
2022/12/28 06:36:21;;;;;;;3.08;1.83;;;7.80;99.90;;;;;;5091849;27;20048;-67
2022/12/28 06:38:48;;;;;;;2.75;1.60;;;7.80;99.90;;;;;;5094907;27;20508;-67
2022/12/28 06:41:16;;;;;;;2.05;1.08;;;7.80;99.90;;;;;;5096834;28;20467;-69
2022/12/28 06:43:42;;;;;;;2.65;1.40;;;7.90;99.90;;;;;;5098424;27;20443;-68
2022/12/28 06:46:09;;;;;;;3.30;1.73;;;7.90;99.90;;;;;;5077799;28;20075;-68
2022/12/28 06:48:34;;;;;;;2.95;1.55;;;7.90;99.90;;;;;;5089338;28;20040;-68
2022/12/28 06:51:03;;;;;;;3.03;1.63;;;7.90;99.90;;;;;;5095355;27;20081;-68
2022/12/28 06:53:31;;;;;;;2.20;1.52;;;8.00;99.90;;;;;;5094452;28;20044;-67
2022/12/28 06:55:59;;;;;;;3.20;1.52;;;8.00;99.90;;;;;;5097897;28;20046;-68
2022/12/28 06:58:26;;;;;;;6.68;1.40;;;8.00;99.90;;;;;;5090320;28;20043;-68
2022/12/28 07:00:52;;;;;;;2.65;1.55;;;8.00;99.90;;;;;;5094269;28;20050;-68
2022/12/28 07:03:18;;;;;;;2.90;1.55;;;8.00;99.90;;;;;;5100757;28;23310;-68
2022/12/28 07:05:43;;;;;;;2.08;1.13;;;8.00;99.90;;;;;;5124077;27;20164;-67
2022/12/28 07:08:09;;;;;;;5.15;2.10;;;8.00;99.90;;;;;;5100200;28;20071;-68
2022/12/28 07:10:36;;;;;;;3.83;1.75;;;8.10;99.90;;;;;;5124836;27;20040;-68
2022/12/28 07:13:02;;;;;;;3.90;2.08;;;8.10;99.90;;;;;;5094327;28;20039;-68
2022/12/28 07:15:28;;;;;;;4.18;2.25;;;8.10;99.90;;;;;;5099001;28;20032;-68
2022/12/28 07:17:53;;;;;;;2.38;1.23;;;8.20;99.90;;;;;;5093395;28;20104;-68
2022/12/28 07:20:19;;;;;;;2.78;1.50;;;8.20;99.90;;;;;;5120029;27;20062;-68
2022/12/28 07:22:45;;;;;;;3.88;2.25;;;8.20;99.90;;;;;;5099324;27;20114;-68
2022/12/28 07:25:10;;;;;;;2.67;1.50;;;8.20;99.90;;;;;;5097073;27;20032;-68
2022/12/28 07:27:36;;;;;;;3.30;1.92;;;8.20;99.90;;;;;;5076572;28;20077;-68
2022/12/28 07:30:02;;;;;;;3.35;2.03;;;8.20;99.90;;;;;;5124445;27;20251;-68
2022/12/28 07:32:27;;;;;;;2.97;1.60;;;8.30;99.90;;;;;;5091204;27;20036;-69
2022/12/28 07:34:53;;;;;;;12.02;2.55;;;8.30;99.90;;;;;;5091731;27;20047;-68
2022/12/28 07:37:18;;;;;;;4.95;2.33;;;8.30;99.90;;;;;;5092731;27;20118;-68
2022/12/28 07:39:44;;;;;;;3.83;2.50;;;8.30;99.90;;;;;;5076130;28;20131;-68
2022/12/28 07:42:11;;;;;;;5.03;2.55;;;8.30;99.90;;;;;;5092995;27;20027;-68
2022/12/28 07:44:37;;;;;;;3.95;2.53;;;8.30;99.90;;;;;;5092180;27;20048;-68
2022/12/28 07:47:02;;;;;;;4.13;2.42;;;8.40;99.90;;;;;;5125122;27;20031;-68
2022/12/28 07:49:28;;;;;;;5.00;2.50;;;8.40;99.90;;;;;;5096954;28;20085;-68
2022/12/28 07:51:54;;;;;;;3.58;1.73;;;8.40;99.90;;;;;;5076794;28;20052;-67
2022/12/28 07:54:19;;;;;;;5.30;2.58;;;8.40;99.90;;;;;;5119731;27;20920;-68
2022/12/28 07:56:45;;;;;;;4.03;1.88;;;8.40;99.90;;;;;;5086784;27;20043;-67
2022/12/28 07:59:13;;;;;;;3.28;1.77;;;8.50;99.90;;;;;;5091615;27;20038;-68
2022/12/28 08:01:38;;;;;;;4.20;2.35;;;8.40;99.90;;;;;;5098010;28;20047;-68
2022/12/28 08:04:08;;;;;;;4.60;2.80;;;8.40;99.90;;;;;;5079958;28;20222;-68
2022/12/28 08:06:36;;;;;;;3.80;1.75;;;8.50;99.90;;;;;;5098676;28;20052;-68
2022/12/28 08:09:03;;;;;;;3.80;1.95;;;8.50;99.90;;;;;;5097227;27;20101;-68
2022/12/28 08:11:32;;;;;;;4.47;2.10;;;8.40;99.90;;;;;;5105454;28;20047;-68
2022/12/28 08:13:58;;;;;;;3.08;2.53;;;8.40;99.90;;;;;;5094252;28;20058;-68
2022/12/28 08:16:25;;;;;;;3.45;1.95;;;8.50;99.90;;;;;;5095704;27;20024;-67
2022/12/28 08:18:52;;;;;;;2.72;2.05;;;8.50;99.90;;;;;;5094306;27;20099;-68
2022/12/28 08:21:29;;;;;;;3.63;2.20;;;8.50;99.90;;;;;;5101951;28;20456;-68
2022/12/28 08:23:55;;;;;;;4.05;2.30;;;8.50;99.90;;;;;;5101185;28;20465;-68
2022/12/28 08:26:23;;;;;;;3.03;2.10;;;8.50;99.90;;;;;;5075006;28;20536;-68
2022/12/28 08:28:52;;;;;;;4.47;2.53;;;8.60;99.90;;;;;;5096135;27;20841;-68
2022/12/28 08:31:21;;;;;;;3.17;1.73;;;8.60;99.90;;;;;;5097296;28;20055;-68
2022/12/28 08:33:46;;;;;;;5.57;2.17;;;8.60;99.90;;;;;;5093763;28;20477;-68
2022/12/28 08:36:13;;;;;;;2.88;1.70;;;8.60;99.90;;;;;;5098809;28;20050;-68
2022/12/28 08:38:40;;;;;;;3.58;2.10;;;8.60;99.90;;;;;;5081893;28;20051;-69
2022/12/28 08:41:09;;;;;;;3.95;2.17;;;8.60;99.90;;;;;;5100548;28;20036;-68
2022/12/28 08:43:35;;;;;;;3.70;2.15;;;8.60;99.90;;;;;;5098910;28;20054;-68
2022/12/28 08:46:25;;;;;;;2.80;1.73;;;8.60;99.90;;;;;;5093380;27;20572;-68
2022/12/28 08:48:53;;;;;;;2.45;1.50;;;8.60;99.90;;;;;;5083083;27;20047;-68
2022/12/28 08:51:24;;;;;;;3.45;1.92;;;8.60;99.90;;;;;;5097743;28;20044;-69
2022/12/28 08:53:50;;;;;;;2.28;1.52;;;8.60;99.90;;;;;;5091711;27;20055;-68
2022/12/28 08:56:18;;;;;;;2.85;1.50;;;8.60;99.90;;;;;;5092587;27;20477;-68
2022/12/28 08:58:45;;;;;;;3.30;1.73;;;8.60;99.90;;;;;;5089866;27;20392;-67
2022/12/28 09:01:16;;;;;;;3.42;1.55;;;8.70;99.90;;;;;;5086647;28;20130;-68
2022/12/28 09:03:44;;;;;;;4.97;1.90;;;8.70;99.90;;;;;;5090332;27;20040;-68
2022/12/28 09:06:17;;;;;;;3.38;1.75;;;8.70;99.90;;;;;;5081830;28;20124;-68
2022/12/28 09:08:43;;;;;;;3.58;1.90;;;8.70;99.90;;;;;;5072278;28;20070;-68
2022/12/28 09:11:12;;;;;;;3.50;1.83;;;8.70;99.90;;;;;;5093066;27;20043;-68
2022/12/28 09:13:38;;;;;;;3.08;1.65;;;8.70;99.90;;;;;;5087306;27;20040;-68
2022/12/28 09:16:08;;;;;;;2.28;1.58;;;8.70;99.90;;;;;;5087430;27;20043;-67
2022/12/28 09:18:34;;;;;;;2.75;1.70;;;8.70;99.90;;;;;;5092038;28;20066;-68
2022/12/28 09:21:15;;;;;;;3.10;1.50;;;8.70;99.90;;;;;;5091576;27;20287;-68
2022/12/28 09:23:42;;;;;;;3.28;1.90;;;8.70;99.90;;;;;;5125061;27;20139;-68
2022/12/28 09:26:13;;;;;;;5.93;2.03;;;8.70;99.90;;;;;;5090471;27;20090;-68
2022/12/28 09:28:43;;;;;;;2.55;1.55;;;8.70;99.90;;;;;;5091300;27;20122;-68
2022/12/28 09:31:08;;;;;;;2.42;1.40;;;8.80;99.90;;;;;;5092897;27;20051;-68
2022/12/28 09:36:19;;;;;;;2.85;1.63;;;8.80;99.90;;;;;;5087542;27;20416;-68
2022/12/28 09:38:46;;;;;;;2.65;1.38;;;8.80;99.90;;;;;;5096252;27;20031;-68
2022/12/28 09:41:29;;;;;;;2.72;1.63;;;8.80;99.90;;;;;;5085795;27;20122;-68
2022/12/28 09:44:29;;;;;;;4.75;1.52;;;8.80;99.90;;;;;;5092513;27;20389;-68
2022/12/28 09:47:21;;;;;;;2.80;1.75;;;8.80;99.90;;;;;;5067147;28;20077;-68
2022/12/28 09:50:18;;;;;;;2.95;1.60;;;8.80;99.90;;;;;;5055601;28;20119;-68
2022/12/28 09:52:59;;;;;;;3.08;1.65;;;8.90;99.90;;;;;;5088626;27;20048;-68
2022/12/28 09:55:25;;;;;;;3.65;2.13;;;8.80;99.90;;;;;;5092714;28;20051;-68
2022/12/28 09:57:54;;;;;;;3.58;2.03;;;8.90;99.90;;;;;;5071150;28;20122;-68
2022/12/28 10:00:27;;;;;;;3.13;1.77;;;8.90;99.90;;;;;;5091519;28;20059;-70
2022/12/28 10:03:09;;;;;;;2.70;1.50;;;8.90;99.90;;;;;;5098419;28;20488;-68
2022/12/28 10:05:35;;;;;;;3.25;1.90;;;8.90;99.90;;;;;;5094410;28;20731;-68
2022/12/28 10:08:02;;;;;;;3.28;1.65;;;8.90;99.90;;;;;;5127250;27;20036;-68
2022/12/28 10:10:28;;;;;;;2.60;1.52;;;9.00;99.90;;;;;;5088147;28;20031;-68
2022/12/28 10:12:54;;;;;;;4.88;1.55;;;8.90;99.90;;;;;;5119751;27;20043;-68
2022/12/28 10:15:23;;;;;;;3.55;1.80;;;8.90;99.90;;;;;;5104433;27;20035;-68
2022/12/28 10:17:49;;;;;;;2.53;1.63;;;8.90;99.90;;;;;;5087017;28;20488;-68
2022/12/28 10:20:20;;;;;;;2.67;1.42;;;8.90;99.90;;;;;;5090501;28;20050;-68
2022/12/28 10:22:55;;;;;;;2.50;1.38;;;9.00;99.90;;;;;;5084832;28;20032;-68
2022/12/28 10:25:23;;;;;;;1.98;1.10;;;9.00;99.90;;;;;;5088938;28;20079;-68
2022/12/28 10:27:49;;;;;;;2.03;1.35;;;9.00;99.90;;;;;;5090440;28;20036;-68
2022/12/28 10:30:28;;;;;;;2.88;1.38;;;9.00;99.90;;;;;;5090810;28;20032;-68
2022/12/28 10:32:58;;;;;;;3.45;2.10;;;9.00;99.90;;;;;;5122286;27;20101;-68
2022/12/28 10:35:32;;;;;;;2.75;1.50;;;9.00;99.90;;;;;;5089005;28;20036;-68
2022/12/28 10:38:11;;;;;;;1.83;0.90;;;9.00;99.90;;;;;;5095669;28;20046;-68
2022/12/28 10:40:38;;;;;;;2.03;1.20;;;9.00;99.90;;;;;;5094075;28;20537;-68
2022/12/28 10:43:05;;;;;;;3.03;1.38;;;9.00;99.90;;;;;;5093105;28;20032;-68
2022/12/28 10:45:45;;;;;;;2.67;1.25;;;9.00;99.90;;;;;;5085732;28;20035;-68
2022/12/28 10:48:30;;;;;;;1.80;1.00;;;9.00;99.90;;;;;;5095146;28;20452;-68
2022/12/28 10:51:16;;;;;;;2.35;1.40;;;9.00;99.90;;;;;;5092378;28;20075;-68
2022/12/28 10:53:45;;;;;;;3.30;2.03;;;9.00;99.90;;;;;;5083475;28;20784;-68
2022/12/28 10:56:13;;;;;;;3.80;1.73;;;9.00;99.90;;;;;;5086795;28;20067;-68
2022/12/28 10:58:41;;;;;;;3.95;1.85;;;9.00;99.90;;;;;;5071825;28;20043;-68
2022/12/28 11:01:13;;;;;;;3.15;1.90;;;9.00;99.90;;;;;;5086138;28;20112;-68
2022/12/28 11:03:41;;;;;;;3.58;1.92;;;9.10;99.90;;;;;;5095303;28;20039;-68
2022/12/28 11:06:20;;;;;;;3.30;1.75;;;9.00;99.90;;;;;;5091849;28;20050;-68
2022/12/28 11:08:58;;;;;;;2.58;1.73;;;9.10;99.90;;;;;;5094785;28;20068;-68
2022/12/28 11:11:24;;;;;;;2.20;1.27;;;9.00;99.90;;;;;;5097880;28;20040;-68
2022/12/28 11:14:33;;;;;;;1.40;0.77;;;9.10;99.90;;;;;;5124449;27;20042;-68
2022/12/28 11:17:26;;;;;;;2.47;1.35;;;9.10;99.90;;;;;;5114940;27;20062;-67
2022/12/28 11:19:56;;;;;;;1.80;0.80;;;9.10;99.90;;;;;;5126919;27;20112;-68
2022/12/28 11:22:25;;;;;;;1.70;0.90;;;9.10;99.90;;;;;;5089098;28;20043;-68
2022/12/28 11:24:51;;;;;;;2.17;1.30;;;9.10;99.90;;;;;;5124033;27;20036;-68
2022/12/28 11:27:19;;;;;;;1.83;0.90;;;9.10;99.90;;;;;;5099621;28;20034;-68
2022/12/28 11:29:48;;;;;;;1.77;1.10;;;9.10;99.90;;;;;;5096691;28;20036;-67
2022/12/28 11:32:38;;;;;;;2.83;0.85;;;9.10;99.90;;;;;;5088633;28;20907;-67
2022/12/28 11:35:05;;;;;;;1.95;0.85;;;9.10;99.90;;;;;;5120505;27;20043;-67
2022/12/28 11:37:30;;;;;;;2.03;1.38;;;9.10;99.90;;;;;;5121345;27;20040;-67
2022/12/28 11:39:57;;;;;;;1.85;0.98;;;9.10;99.90;;;;;;5122050;27;20042;-67
2022/12/28 11:42:35;;;;;;;2.88;1.25;;;9.10;99.90;;;;;;5085075;28;20051;-68
2022/12/28 11:45:10;;;;;;;1.80;0.98;;;9.10;99.90;;;;;;5093063;28;20035;-67
2022/12/28 11:47:36;;;;;;;;;;;9.10;99.90;;;;;;5092324;28;20040;-67
2022/12/28 11:50:33;;;;;;;1.75;0.80;;;9.10;99.90;;;;;;5096225;28;19923;-67
2022/12/28 11:53:00;;;;;;;2.53;1.17;;;9.10;99.90;;;;;;5070771;28;20043;-67
2022/12/28 11:55:40;;;;;;;1.80;0.65;;;9.10;99.90;;;;;;5091771;28;20043;-67
2022/12/28 11:58:38;;;;;;;2.05;1.05;;;9.10;99.90;;;;;;5124098;27;20043;-69
2022/12/28 12:01:04;;;;;;;2.65;1.10;;;9.10;99.90;;;;;;5050788;28;20052;-67
2022/12/28 12:04:00;;;;;;;1.83;0.98;;;9.10;99.90;;;;;;5123488;27;20048;-68
2022/12/28 12:06:45;;;;;;;2.20;1.20;;;9.10;99.90;;;;;;5110157;28;20119;-68
2022/12/28 12:09:20;;;;;;;1.45;0.68;;;9.10;99.90;;;;;;5104685;28;20108;-67
2022/12/28 12:11:51;;;;;;;1.55;0.88;;;9.10;99.90;;;;;;5085105;28;20488;-67
2022/12/28 12:14:25;;;;;;;2.40;1.08;;;9.10;99.90;;;;;;5096193;27;20100;-68
2022/12/28 12:17:01;;;;;;;1.67;1.08;;;9.10;99.90;;;;;;5103678;28;20031;-71
2022/12/28 12:19:31;;;;;;;2.28;0.75;;;9.10;99.90;;;;;;5099602;27;20133;-67
2022/12/28 12:22:14;;;;;;;2.25;1.17;;;9.10;99.90;;;;;;5094444;28;20046;-67
2022/12/28 12:24:53;;;;;;;1.38;0.85;;;9.10;99.90;;;;;;5102570;28;20095;-68
2022/12/28 12:27:42;;;;;;;2.25;0.98;;;9.10;99.90;;;;;;5103552;28;20044;-67
2022/12/28 12:30:19;;;;;;;1.52;1.05;;;9.10;99.90;;;;;;5100850;28;20044;-68
2022/12/28 12:33:02;;;;;;;2.63;1.15;;;9.10;99.90;;;;;;5099051;28;20035;-68
2022/12/28 12:35:32;;;;;;;3.50;2.28;;;9.10;99.90;;;;;;5093654;28;20046;-68
2022/12/28 12:38:08;;;;;;;8.05;4.10;;;9.10;99.90;;;;;;5095652;28;20059;-68
2022/12/28 12:40:43;;;;;;;2.55;1.30;;;9.10;99.90;;;;;;5127465;27;20134;-68
2022/12/28 12:43:36;;;;;;;3.58;3.17;;;9.10;99.90;;;;;;5112124;27;20484;-67
2022/12/28 12:46:23;;;;;;;3.33;1.42;;;9.10;99.90;;;;;;5095692;28;20044;-68
2022/12/28 12:49:00;;;;;;;6.07;4.13;;;9.10;99.90;;;;;;5093940;27;20032;-68
2022/12/28 12:51:49;;;;;;;2.65;1.80;;;9.10;99.90;;;;;;5126940;27;20477;-67
2022/12/28 12:54:39;;;;;;;2.40;1.52;;;9.10;99.90;;;;;;5087665;28;20167;-67
2022/12/28 12:57:43;;;;;;;5.43;3.10;;;9.10;99.90;;;;;;5122854;27;20135;-68
2022/12/28 13:00:21;;;;;;;1.95;0.90;;;9.10;99.90;;;;;;5093353;28;20501;-68
2022/12/28 13:03:09;;;;;;;2.47;1.23;;;9.10;99.90;;;;;;5091598;28;20515;-68
2022/12/28 13:05:37;;;;;;;1.90;1.27;;;9.10;99.90;;;;;;5089486;28;20156;-68
2022/12/28 13:08:04;;;;;;;1.50;0.68;;;9.10;99.90;;;;;;5091640;28;20068;-68
2022/12/28 13:10:35;;;;;;;2.20;1.67;;;9.10;99.90;;;;;;5091366;28;20027;-68
2022/12/28 13:13:03;;;;;;;2.13;1.05;;;9.10;99.90;;;;;;5124475;27;20111;-68
2022/12/28 13:15:29;;;;;;;1.42;0.82;;;9.10;99.90;;;;;;5093082;28;20044;-68
2022/12/28 13:18:03;;;;;;;2.25;1.15;;;9.10;99.90;;;;;;5092545;28;20393;-67
2022/12/28 13:20:29;;;;;;;1.15;0.75;;;9.10;99.90;;;;;;5093897;27;20081;-68
2022/12/28 13:22:55;;;;;;;1.35;0.70;;;9.10;99.90;;;;;;5076113;28;20044;-68
2022/12/28 13:25:26;;;;;;;1.85;0.90;;;9.10;99.90;;;;;;5076311;27;20070;-68
2022/12/28 13:27:52;;;;;;;0.43;0.35;;;9.00;99.90;;;;;;5089544;28;20036;-68
2022/12/28 13:30:20;;;;;;;1.77;1.25;;;9.10;99.90;;;;;;5089352;28;20135;-68
2022/12/28 13:32:52;;;;;;;0.73;0.50;;;9.10;99.90;;;;;;5093673;28;20042;-68
2022/12/28 13:35:19;;;;;;;0.82;0.60;;;9.10;99.90;;;;;;5090638;28;20036;-69
2022/12/28 13:38:07;;;;;;;1.05;0.75;;;9.10;99.90;;;;;;5073825;27;20823;-67
2022/12/28 13:40:34;;;;;;;1.13;0.77;;;9.10;99.90;;;;;;5087416;27;20119;-68
2022/12/28 13:43:25;;;;;;;1.65;1.05;;;9.10;99.90;;;;;;5089208;28;20079;-68
2022/12/28 13:45:55;;;;;;;1.38;0.70;;;9.10;99.90;;;;;;5091205;28;20519;-68
2022/12/28 13:48:22;;;;;;;1.42;0.93;;;9.10;99.90;;;;;;5089793;28;20039;-68
2022/12/28 13:50:48;;;;;;;2.45;1.10;;;9.00;99.90;;;;;;5092859;28;20115;-68